Wichita, KS (67227)

7:29 PM CDT on September 18, 2014 (GMT -0500)
Southwest Wichita | Change Station
CLOSE
Current Station
Personal Weather Station
Location: Wichita, KS
Elevation: 1301 ft
Nearby Weather Stations

Elev 1301 ft 37.58 °N, 97.40 °W | Updated 2 minutes ago

Clear
Clear
76.4 °F
Feels Like 78 °F
N
5.0
Wind Variable Wind from ESE
Gusts 9.0 mph

Today
High -- | Low -- °F
--% Chance of Precip.
Yesterday
High -- | Low -- °F
Precip. -- in
7:14 AM 7:32 PM
Waning Crescent, 23% visible
Pressure 29.91 in
Visibility 10.0 miles
Clouds Few 14000 ft
Heat Index 78 °F
Dew Point 60 °F
Humidity 56%
Rainfall 0.00 in
Snow Depth Not available.
UV 0.0 out of 12
Pollen 6.20 out of 12
Air Quality Not available.
Flu Activity Not available.
SPECI KICT 190003Z 10016KT 10SM FEW140 26/15 A2991 RMK AO2 WSHFT 2343 T02610150

More Conditions Fewer Conditions

Pressure 29.91 in
Visibility 10.0 miles
Clouds Few 14000 ft
Heat Index 78 °F
Dew Point 60 °F
Humidity 56%
Rainfall 0.00 in
Snow Depth Not available.
UV 0.0 out of 12
Pollen 6.20 out of 12
Air Quality Not available.
Flu Activity Not available.
SPECI KICT 190003Z 10016KT 10SM FEW140 26/15 A2991 RMK AO2 WSHFT 2343 T02610150

More Conditions Fewer Conditions

10-Day Weather Forecast

Almanac

Astronomy

Sep. 18, 2014 Rise Set
Actual Time 7:14 AM CDT 7:32 PM CDT
Civil Twilight 6:48 AM CDT 7:59 PM CDT
Nautical Twilight 6:17 AM CDT 8:29 PM CDT
Astronomical Twilight 5:46 AM CDT 9:00 PM CDT
Moon 2:11 AM CDT (9/18) 4:20 PM CDT (9/18)
Length of Visible Light 13h 10m
Length of Day
12h 18m
Tomorrow will be 2m 23s shorter.
Waning Crescent, 23% of the Moon is Illuminated
Today
Waning Crescent
Sep 24
New
Oct 1
First Quarter
Oct 8
Full
Oct 15
Last Quarter

Today's Extremes

State Highs State Lows

Community

WunderPhotos

Upload Photos

1,754,501 photos uploaded!

WunderBlogs® & News

Nearby

Snow Depth

Station Depth Elevation
No new snow has been reported.

Earthquake Activity

City Distance Mag. Time & Date
Guthrie, Oklahoma 121 miles 3.0 7:08 PM CDT
2014-09-18
Perry, Oklahoma 90 miles 3.4 2:52 PM CDT
2014-09-18
Medford, Oklahoma 63 miles 3.0 5:28 AM CDT
2014-09-18
Perry, Oklahoma 96 miles 3.9 2:12 AM CDT
2014-09-18
Minimum magnitude displayed is 2.5.

Coastal Water Temperatures

Place Temperature
No Stations Reporting

Nearby Weather Stations